sensor_id;sensor_type;location;lat;lon;timestamp;temperature;humidity
69901;DHT22;57183;50.930;5.406;2022-08-02T00:01:42;18.10;99.90
69901;DHT22;57183;50.930;5.406;2022-08-02T00:04:08;18.10;99.90
69901;DHT22;57183;50.930;5.406;2022-08-02T00:06:34;18.10;99.90
69901;DHT22;57183;50.930;5.406;2022-08-02T00:09:00;17.90;99.90
69901;DHT22;57183;50.930;5.406;2022-08-02T00:11:26;17.90;99.90
69901;DHT22;57183;50.930;5.406;2022-08-02T00:13:52;17.90;99.90
69901;DHT22;57183;50.930;5.406;2022-08-02T00:16:17;17.90;99.90
69901;DHT22;57183;50.930;5.406;2022-08-02T00:18:43;17.90;99.90
69901;DHT22;57183;50.930;5.406;2022-08-02T00:21:09;17.80;99.90
69901;DHT22;57183;50.930;5.406;2022-08-02T00:23:35;17.80;99.90
69901;DHT22;57183;50.930;5.406;2022-08-02T00:26:01;17.80;99.90
69901;DHT22;57183;50.930;5.406;2022-08-02T00:28:27;17.70;99.90
69901;DHT22;57183;50.930;5.406;2022-08-02T00:30:52;17.70;99.90
69901;DHT22;57183;50.930;5.406;2022-08-02T00:33:18;17.80;99.90
69901;DHT22;57183;50.930;5.406;2022-08-02T00:35:44;17.70;99.90
69901;DHT22;57183;50.930;5.406;2022-08-02T00:38:13;17.80;99.90
69901;DHT22;57183;50.930;5.406;2022-08-02T00:40:40;17.80;99.90
69901;DHT22;57183;50.930;5.406;2022-08-02T00:43:07;17.80;99.90
69901;DHT22;57183;50.930;5.406;2022-08-02T00:45:39;17.80;99.90
69901;DHT22;57183;50.930;5.406;2022-08-02T00:48:06;17.80;99.90
69901;DHT22;57183;50.930;5.406;2022-08-02T00:50:32;17.80;99.90
69901;DHT22;57183;50.930;5.406;2022-08-02T00:52:58;17.70;99.90
69901;DHT22;57183;50.930;5.406;2022-08-02T00:55:25;17.60;99.90
69901;DHT22;57183;50.930;5.406;2022-08-02T00:57:51;17.60;99.90
69901;DHT22;57183;50.930;5.406;2022-08-02T01:00:16;17.60;99.90
69901;DHT22;57183;50.930;5.406;2022-08-02T01:02:43;17.50;99.90
69901;DHT22;57183;50.930;5.406;2022-08-02T01:05:09;17.50;99.90
69901;DHT22;57183;50.930;5.406;2022-08-02T01:07:35;17.60;99.90
69901;DHT22;57183;50.930;5.406;2022-08-02T01:10:00;17.60;99.90
69901;DHT22;57183;50.930;5.406;2022-08-02T01:12:26;17.50;99.90
69901;DHT22;57183;50.930;5.406;2022-08-02T01:14:54;17.50;99.90
69901;DHT22;57183;50.930;5.406;2022-08-02T01:31:51;17.40;99.90
69901;DHT22;57183;50.930;5.406;2022-08-02T01:36:58;17.30;99.90
69901;DHT22;57183;50.930;5.406;2022-08-02T01:39:27;17.30;99.90
69901;DHT22;57183;50.930;5.406;2022-08-02T01:41:56;17.30;99.90
69901;DHT22;57183;50.930;5.406;2022-08-02T01:44:24;17.40;99.90
69901;DHT22;57183;50.930;5.406;2022-08-02T01:46:51;17.30;99.90
69901;DHT22;57183;50.930;5.406;2022-08-02T01:49:19;17.30;99.90
69901;DHT22;57183;50.930;5.406;2022-08-02T01:51:49;17.30;99.90
69901;DHT22;57183;50.930;5.406;2022-08-02T01:54:36;17.30;99.90
69901;DHT22;57183;50.930;5.406;2022-08-02T01:57:05;17.30;99.90
69901;DHT22;57183;50.930;5.406;2022-08-02T01:59:31;17.20;99.90
69901;DHT22;57183;50.930;5.406;2022-08-02T02:01:59;17.10;99.90
69901;DHT22;57183;50.930;5.406;2022-08-02T02:04:28;17.10;99.90
69901;DHT22;57183;50.930;5.406;2022-08-02T02:06:55;17.10;99.90
69901;DHT22;57183;50.930;5.406;2022-08-02T02:09:26;17.00;99.90
69901;DHT22;57183;50.930;5.406;2022-08-02T02:11:54;17.00;99.90
69901;DHT22;57183;50.930;5.406;2022-08-02T02:14:20;17.00;99.90
69901;DHT22;57183;50.930;5.406;2022-08-02T02:16:47;17.00;99.90
69901;DHT22;57183;50.930;5.406;2022-08-02T02:19:15;16.80;99.90
69901;DHT22;57183;50.930;5.406;2022-08-02T02:21:41;16.70;99.90
69901;DHT22;57183;50.930;5.406;2022-08-02T02:24:07;16.60;99.90
69901;DHT22;57183;50.930;5.406;2022-08-02T02:26:34;16.60;99.90
69901;DHT22;57183;50.930;5.406;2022-08-02T02:29:05;16.70;99.90
69901;DHT22;57183;50.930;5.406;2022-08-02T02:31:38;16.70;99.90
69901;DHT22;57183;50.930;5.406;2022-08-02T02:34:07;16.70;99.90
69901;DHT22;57183;50.930;5.406;2022-08-02T02:36:38;16.70;99.90
69901;DHT22;57183;50.930;5.406;2022-08-02T02:39:06;16.70;99.90
69901;DHT22;57183;50.930;5.406;2022-08-02T02:41:32;16.60;99.90
69901;DHT22;57183;50.930;5.406;2022-08-02T02:44:00;16.60;99.90
69901;DHT22;57183;50.930;5.406;2022-08-02T02:46:29;16.50;99.90
69901;DHT22;57183;50.930;5.406;2022-08-02T02:48:56;16.40;99.90
69901;DHT22;57183;50.930;5.406;2022-08-02T02:51:22;16.30;99.90
69901;DHT22;57183;50.930;5.406;2022-08-02T02:53:50;16.40;99.90
69901;DHT22;57183;50.930;5.406;2022-08-02T02:56:17;16.30;99.90
69901;DHT22;57183;50.930;5.406;2022-08-02T02:58:44;16.30;99.90
69901;DHT22;57183;50.930;5.406;2022-08-02T03:01:10;16.30;99.90
69901;DHT22;57183;50.930;5.406;2022-08-02T03:03:58;16.20;99.90
69901;DHT22;57183;50.930;5.406;2022-08-02T03:06:24;16.20;99.90
69901;DHT22;57183;50.930;5.406;2022-08-02T03:08:50;16.30;99.90
69901;DHT22;57183;50.930;5.406;2022-08-02T03:11:17;16.30;99.90
69901;DHT22;57183;50.930;5.406;2022-08-02T03:13:43;16.20;99.90
69901;DHT22;57183;50.930;5.406;2022-08-02T03:16:10;16.10;99.90
69901;DHT22;57183;50.930;5.406;2022-08-02T03:18:41;16.00;99.90
69901;DHT22;57183;50.930;5.406;2022-08-02T03:21:09;15.90;99.90
69901;DHT22;57183;50.930;5.406;2022-08-02T03:23:40;16.00;99.90
69901;DHT22;57183;50.930;5.406;2022-08-02T03:26:07;16.00;99.90
69901;DHT22;57183;50.930;5.406;2022-08-02T03:28:33;16.00;99.90
69901;DHT22;57183;50.930;5.406;2022-08-02T03:30:59;16.00;99.90
69901;DHT22;57183;50.930;5.406;2022-08-02T03:33:26;16.00;99.90
69901;DHT22;57183;50.930;5.406;2022-08-02T03:35:55;16.00;99.90
69901;DHT22;57183;50.930;5.406;2022-08-02T03:38:22;16.00;99.90
69901;DHT22;57183;50.930;5.406;2022-08-02T03:40:49;16.00;99.90
69901;DHT22;57183;50.930;5.406;2022-08-02T03:43:16;15.90;99.90
69901;DHT22;57183;50.930;5.406;2022-08-02T03:45:43;15.90;99.90
69901;DHT22;57183;50.930;5.406;2022-08-02T03:48:10;15.90;99.90
69901;DHT22;57183;50.930;5.406;2022-08-02T03:50:38;15.80;99.90
69901;DHT22;57183;50.930;5.406;2022-08-02T03:53:05;15.80;99.90
69901;DHT22;57183;50.930;5.406;2022-08-02T03:55:33;15.70;99.90
69901;DHT22;57183;50.930;5.406;2022-08-02T03:57:58;15.80;99.90
69901;DHT22;57183;50.930;5.406;2022-08-02T04:00:24;15.80;99.90
69901;DHT22;57183;50.930;5.406;2022-08-02T04:02:50;15.90;99.90
69901;DHT22;57183;50.930;5.406;2022-08-02T04:05:17;15.90;99.90
69901;DHT22;57183;50.930;5.406;2022-08-02T04:07:42;16.00;99.90
69901;DHT22;57183;50.930;5.406;2022-08-02T04:10:09;16.30;99.90
69901;DHT22;57183;50.930;5.406;2022-08-02T04:12:35;16.60;99.90
69901;DHT22;57183;50.930;5.406;2022-08-02T04:15:03;16.70;99.90
69901;DHT22;57183;50.930;5.406;2022-08-02T04:17:31;16.70;99.90
69901;DHT22;57183;50.930;5.406;2022-08-02T04:20:17;16.70;99.90
69901;DHT22;57183;50.930;5.406;2022-08-02T04:22:48;16.60;99.90
69901;DHT22;57183;50.930;5.406;2022-08-02T04:25:15;16.50;99.90
69901;DHT22;57183;50.930;5.406;2022-08-02T04:27:44;16.50;99.90
69901;DHT22;57183;50.930;5.406;2022-08-02T04:30:10;16.40;99.90
69901;DHT22;57183;50.930;5.406;2022-08-02T04:32:37;16.70;99.90
69901;DHT22;57183;50.930;5.406;2022-08-02T04:35:04;17.00;99.90
69901;DHT22;57183;50.930;5.406;2022-08-02T04:37:30;17.20;99.90
69901;DHT22;57183;50.930;5.406;2022-08-02T04:39:55;17.30;99.90
69901;DHT22;57183;50.930;5.406;2022-08-02T04:42:22;17.40;99.90
69901;DHT22;57183;50.930;5.406;2022-08-02T04:44:49;17.30;99.90
69901;DHT22;57183;50.930;5.406;2022-08-02T04:47:15;17.20;99.90
69901;DHT22;57183;50.930;5.406;2022-08-02T04:49:41;17.10;99.90
69901;DHT22;57183;50.930;5.406;2022-08-02T04:52:06;16.90;99.90
69901;DHT22;57183;50.930;5.406;2022-08-02T04:54:32;16.80;99.90
69901;DHT22;57183;50.930;5.406;2022-08-02T04:56:58;16.70;99.90
69901;DHT22;57183;50.930;5.406;2022-08-02T04:59:24;16.60;99.90
69901;DHT22;57183;50.930;5.406;2022-08-02T05:01:49;16.70;99.90
69901;DHT22;57183;50.930;5.406;2022-08-02T05:04:15;16.60;99.90
69901;DHT22;57183;50.930;5.406;2022-08-02T05:06:41;16.60;99.90
69901;DHT22;57183;50.930;5.406;2022-08-02T05:09:06;16.60;99.90
69901;DHT22;57183;50.930;5.406;2022-08-02T05:11:32;16.60;99.90
69901;DHT22;57183;50.930;5.406;2022-08-02T05:13:57;16.60;99.90
69901;DHT22;57183;50.930;5.406;2022-08-02T05:16:23;16.60;99.90
69901;DHT22;57183;50.930;5.406;2022-08-02T05:18:51;16.60;99.90
69901;DHT22;57183;50.930;5.406;2022-08-02T05:21:17;16.60;99.90
69901;DHT22;57183;50.930;5.406;2022-08-02T05:23:42;16.70;99.90
69901;DHT22;57183;50.930;5.406;2022-08-02T05:26:08;17.20;99.90
69901;DHT22;57183;50.930;5.406;2022-08-02T05:28:34;17.50;99.90
69901;DHT22;57183;50.930;5.406;2022-08-02T05:31:00;17.80;99.90
69901;DHT22;57183;50.930;5.406;2022-08-02T05:33:25;18.20;99.90
69901;DHT22;57183;50.930;5.406;2022-08-02T05:35:51;18.40;99.90
69901;DHT22;57183;50.930;5.406;2022-08-02T05:38:17;18.60;99.90
69901;DHT22;57183;50.930;5.406;2022-08-02T05:40:43;18.70;99.90
69901;DHT22;57183;50.930;5.406;2022-08-02T05:43:15;19.00;99.90
69901;DHT22;57183;50.930;5.406;2022-08-02T05:45:41;19.20;99.90
69901;DHT22;57183;50.930;5.406;2022-08-02T05:48:07;19.10;99.90
69901;DHT22;57183;50.930;5.406;2022-08-02T05:50:37;19.10;99.90
69901;DHT22;57183;50.930;5.406;2022-08-02T05:56:24;19.20;99.90
69901;DHT22;57183;50.930;5.406;2022-08-02T06:01:37;19.50;99.90
69901;DHT22;57183;50.930;5.406;2022-08-02T06:04:13;19.60;99.90
69901;DHT22;57183;50.930;5.406;2022-08-02T06:06:43;19.80;99.90
69901;DHT22;57183;50.930;5.406;2022-08-02T06:09:13;20.00;99.90
69901;DHT22;57183;50.930;5.406;2022-08-02T06:11:43;20.20;99.90
69901;DHT22;57183;50.930;5.406;2022-08-02T06:14:10;20.40;99.90
69901;DHT22;57183;50.930;5.406;2022-08-02T06:16:37;20.40;99.90
69901;DHT22;57183;50.930;5.406;2022-08-02T06:19:03;20.50;99.90
69901;DHT22;57183;50.930;5.406;2022-08-02T06:21:29;20.60;99.90
69901;DHT22;57183;50.930;5.406;2022-08-02T06:23:57;20.80;99.90
69901;DHT22;57183;50.930;5.406;2022-08-02T06:26:24;21.10;99.90
69901;DHT22;57183;50.930;5.406;2022-08-02T06:28:52;21.30;99.90
69901;DHT22;57183;50.930;5.406;2022-08-02T06:31:18;21.40;99.90
69901;DHT22;57183;50.930;5.406;2022-08-02T06:33:44;21.40;99.90
69901;DHT22;57183;50.930;5.406;2022-08-02T06:37:01;21.40;99.90
69901;DHT22;57183;50.930;5.406;2022-08-02T06:39:19;21.40;99.90
69901;DHT22;57183;50.930;5.406;2022-08-02T06:41:46;21.40;99.90
69901;DHT22;57183;50.930;5.406;2022-08-02T06:44:13;21.30;99.90
69901;DHT22;57183;50.930;5.406;2022-08-02T06:46:39;21.40;99.90
69901;DHT22;57183;50.930;5.406;2022-08-02T06:49:06;21.40;99.90
69901;DHT22;57183;50.930;5.406;2022-08-02T06:51:32;21.50;99.90
69901;DHT22;57183;50.930;5.406;2022-08-02T06:53:58;21.60;99.90
69901;DHT22;57183;50.930;5.406;2022-08-02T06:56:24;21.50;99.90
69901;DHT22;57183;50.930;5.406;2022-08-02T06:58:49;21.60;99.90
69901;DHT22;57183;50.930;5.406;2022-08-02T07:01:17;21.60;99.90
69901;DHT22;57183;50.930;5.406;2022-08-02T07:03:43;21.60;99.90
69901;DHT22;57183;50.930;5.406;2022-08-02T07:06:09;21.60;99.90
69901;DHT22;57183;50.930;5.406;2022-08-02T07:08:38;21.60;99.90
69901;DHT22;57183;50.930;5.406;2022-08-02T07:11:05;21.70;99.90
69901;DHT22;57183;50.930;5.406;2022-08-02T07:13:31;21.90;99.90
69901;DHT22;57183;50.930;5.406;2022-08-02T07:15:56;22.10;99.90
69901;DHT22;57183;50.930;5.406;2022-08-02T07:18:23;22.40;99.90
69901;DHT22;57183;50.930;5.406;2022-08-02T07:20:49;22.50;99.90
69901;DHT22;57183;50.930;5.406;2022-08-02T07:23:15;22.70;99.90
69901;DHT22;57183;50.930;5.406;2022-08-02T07:25:41;22.80;99.90
69901;DHT22;57183;50.930;5.406;2022-08-02T07:28:11;23.00;99.90
69901;DHT22;57183;50.930;5.406;2022-08-02T07:30:37;23.10;99.90
69901;DHT22;57183;50.930;5.406;2022-08-02T07:33:03;23.10;99.90
69901;DHT22;57183;50.930;5.406;2022-08-02T07:35:29;23.20;99.90
69901;DHT22;57183;50.930;5.406;2022-08-02T07:37:55;23.40;99.90
69901;DHT22;57183;50.930;5.406;2022-08-02T07:40:22;23.40;99.90
69901;DHT22;57183;50.930;5.406;2022-08-02T07:42:51;23.50;99.90
69901;DHT22;57183;50.930;5.406;2022-08-02T07:45:17;23.30;99.90
69901;DHT22;57183;50.930;5.406;2022-08-02T07:47:44;23.20;99.90
69901;DHT22;57183;50.930;5.406;2022-08-02T07:50:11;23.30;99.90
69901;DHT22;57183;50.930;5.406;2022-08-02T07:52:38;23.40;99.90
69901;DHT22;57183;50.930;5.406;2022-08-02T07:55:04;23.50;99.90
69901;DHT22;57183;50.930;5.406;2022-08-02T07:57:30;23.50;99.90
69901;DHT22;57183;50.930;5.406;2022-08-02T07:59:56;23.70;99.90
69901;DHT22;57183;50.930;5.406;2022-08-02T08:02:22;23.80;99.90
69901;DHT22;57183;50.930;5.406;2022-08-02T08:04:51;24.00;99.90
69901;DHT22;57183;50.930;5.406;2022-08-02T08:07:17;24.20;99.90
69901;DHT22;57183;50.930;5.406;2022-08-02T08:09:43;24.20;99.90
69901;DHT22;57183;50.930;5.406;2022-08-02T08:12:10;24.30;99.90
69901;DHT22;57183;50.930;5.406;2022-08-02T08:14:37;24.20;99.90
69901;DHT22;57183;50.930;5.406;2022-08-02T08:17:03;24.30;99.90
69901;DHT22;57183;50.930;5.406;2022-08-02T08:19:29;24.30;99.90
69901;DHT22;57183;50.930;5.406;2022-08-02T08:21:55;24.20;99.90
69901;DHT22;57183;50.930;5.406;2022-08-02T08:24:20;24.20;99.90
69901;DHT22;57183;50.930;5.406;2022-08-02T08:26:46;24.10;99.90
69901;DHT22;57183;50.930;5.406;2022-08-02T08:29:12;24.00;99.90
69901;DHT22;57183;50.930;5.406;2022-08-02T08:31:37;24.10;99.90
69901;DHT22;57183;50.930;5.406;2022-08-02T08:34:03;24.30;99.90
69901;DHT22;57183;50.930;5.406;2022-08-02T08:36:29;24.40;99.90
69901;DHT22;57183;50.930;5.406;2022-08-02T08:38:55;24.40;99.60
69901;DHT22;57183;50.930;5.406;2022-08-02T08:41:21;24.40;99.90
69901;DHT22;57183;50.930;5.406;2022-08-02T08:43:47;24.40;99.80
69901;DHT22;57183;50.930;5.406;2022-08-02T08:46:29;24.60;99.80
69901;DHT22;57183;50.930;5.406;2022-08-02T08:49:00;24.60;99.80
69901;DHT22;57183;50.930;5.406;2022-08-02T08:51:30;24.60;99.90
69901;DHT22;57183;50.930;5.406;2022-08-02T08:53:58;24.70;99.40
69901;DHT22;57183;50.930;5.406;2022-08-02T08:56:34;24.80;99.30
69901;DHT22;57183;50.930;5.406;2022-08-02T08:59:01;24.90;99.10
69901;DHT22;57183;50.930;5.406;2022-08-02T09:01:27;24.80;99.30
69901;DHT22;57183;50.930;5.406;2022-08-02T09:03:53;24.80;99.00
69901;DHT22;57183;50.930;5.406;2022-08-02T09:06:18;24.90;99.80
69901;DHT22;57183;50.930;5.406;2022-08-02T09:08:45;25.00;99.40
69901;DHT22;57183;50.930;5.406;2022-08-02T09:11:16;25.10;99.10
69901;DHT22;57183;50.930;5.406;2022-08-02T09:13:57;25.00;99.00
69901;DHT22;57183;50.930;5.406;2022-08-02T09:16:38;25.10;98.90
69901;DHT22;57183;50.930;5.406;2022-08-02T09:21:47;25.40;98.20
69901;DHT22;57183;50.930;5.406;2022-08-02T09:24:21;25.60;98.40
69901;DHT22;57183;50.930;5.406;2022-08-02T09:26:48;25.70;98.00
69901;DHT22;57183;50.930;5.406;2022-08-02T09:29:14;25.90;97.60
69901;DHT22;57183;50.930;5.406;2022-08-02T09:31:40;25.90;97.40
69901;DHT22;57183;50.930;5.406;2022-08-02T09:34:06;26.00;97.00
69901;DHT22;57183;50.930;5.406;2022-08-02T09:39:05;26.20;96.80
69901;DHT22;57183;50.930;5.406;2022-08-02T09:41:33;26.30;97.20
69901;DHT22;57183;50.930;5.406;2022-08-02T09:44:00;26.30;96.50
69901;DHT22;57183;50.930;5.406;2022-08-02T09:46:28;26.10;96.90
69901;DHT22;57183;50.930;5.406;2022-08-02T09:48:58;26.10;96.80
69901;DHT22;57183;50.930;5.406;2022-08-02T09:51:27;26.20;97.00
69901;DHT22;57183;50.930;5.406;2022-08-02T09:53:55;26.30;96.50
69901;DHT22;57183;50.930;5.406;2022-08-02T09:56:23;26.30;96.90
69901;DHT22;57183;50.930;5.406;2022-08-02T09:58:49;26.40;96.30
69901;DHT22;57183;50.930;5.406;2022-08-02T10:01:18;26.50;96.70
69901;DHT22;57183;50.930;5.406;2022-08-02T10:04:02;26.50;96.50
69901;DHT22;57183;50.930;5.406;2022-08-02T10:06:28;26.50;96.50
69901;DHT22;57183;50.930;5.406;2022-08-02T10:08:54;26.50;96.60
69901;DHT22;57183;50.930;5.406;2022-08-02T10:11:21;26.40;96.50
69901;DHT22;57183;50.930;5.406;2022-08-02T10:13:48;26.20;96.00
69901;DHT22;57183;50.930;5.406;2022-08-02T10:16:16;26.20;96.20
69901;DHT22;57183;50.930;5.406;2022-08-02T10:18:43;26.10;96.10
69901;DHT22;57183;50.930;5.406;2022-08-02T10:21:13;26.00;96.20
69901;DHT22;57183;50.930;5.406;2022-08-02T10:23:42;26.10;96.50
69901;DHT22;57183;50.930;5.406;2022-08-02T10:26:08;26.20;96.00
69901;DHT22;57183;50.930;5.406;2022-08-02T10:28:33;26.30;95.90
69901;DHT22;57183;50.930;5.406;2022-08-02T10:31:01;26.40;95.50
69901;DHT22;57183;50.930;5.406;2022-08-02T10:33:29;26.50;95.50
69901;DHT22;57183;50.930;5.406;2022-08-02T10:35:58;26.80;94.80
69901;DHT22;57183;50.930;5.406;2022-08-02T10:38:24;27.00;94.40
69901;DHT22;57183;50.930;5.406;2022-08-02T10:40:53;27.00;94.40
69901;DHT22;57183;50.930;5.406;2022-08-02T10:54:39;27.10;93.00
69901;DHT22;57183;50.930;5.406;2022-08-02T10:57:23;27.00;93.20
69901;DHT22;57183;50.930;5.406;2022-08-02T10:59:51;27.20;93.50
69901;DHT22;57183;50.930;5.406;2022-08-02T11:02:51;27.40;92.00
69901;DHT22;57183;50.930;5.406;2022-08-02T11:05:29;27.80;92.60
69901;DHT22;57183;50.930;5.406;2022-08-02T11:07:56;27.90;92.10
69901;DHT22;57183;50.930;5.406;2022-08-02T11:15:23;28.40;91.40
69901;DHT22;57183;50.930;5.406;2022-08-02T11:17:53;28.50;90.00
69901;DHT22;57183;50.930;5.406;2022-08-02T11:20:21;28.20;90.20
69901;DHT22;57183;50.930;5.406;2022-08-02T11:22:48;27.90;90.40
69901;DHT22;57183;50.930;5.406;2022-08-02T11:27:52;27.70;90.60
69901;DHT22;57183;50.930;5.406;2022-08-02T11:30:19;27.40;90.60
69901;DHT22;57183;50.930;5.406;2022-08-02T11:32:46;27.20;90.60
69901;DHT22;57183;50.930;5.406;2022-08-02T11:35:12;27.10;91.10
69901;DHT22;57183;50.930;5.406;2022-08-02T11:37:39;27.30;91.60
69901;DHT22;57183;50.930;5.406;2022-08-02T11:40:12;27.40;89.40
69901;DHT22;57183;50.930;5.406;2022-08-02T11:42:40;27.40;89.50
69901;DHT22;57183;50.930;5.406;2022-08-02T11:45:07;27.50;88.10
69901;DHT22;57183;50.930;5.406;2022-08-02T11:47:47;27.70;89.40
69901;DHT22;57183;50.930;5.406;2022-08-02T11:50:14;28.00;88.70
69901;DHT22;57183;50.930;5.406;2022-08-02T11:52:40;28.50;88.90
69901;DHT22;57183;50.930;5.406;2022-08-02T11:55:06;28.90;85.90
69901;DHT22;57183;50.930;5.406;2022-08-02T11:57:33;29.00;85.80
69901;DHT22;57183;50.930;5.406;2022-08-02T11:59:59;28.60;84.90
69901;DHT22;57183;50.930;5.406;2022-08-02T12:02:27;28.60;85.40
69901;DHT22;57183;50.930;5.406;2022-08-02T12:07:46;28.40;86.40
69901;DHT22;57183;50.930;5.406;2022-08-02T12:10:14;28.30;85.40
69901;DHT22;57183;50.930;5.406;2022-08-02T12:12:58;28.20;85.80
69901;DHT22;57183;50.930;5.406;2022-08-02T12:15:51;28.20;86.10
69901;DHT22;57183;50.930;5.406;2022-08-02T12:18:18;28.30;85.50
69901;DHT22;57183;50.930;5.406;2022-08-02T12:21:03;28.30;85.80
69901;DHT22;57183;50.930;5.406;2022-08-02T12:23:29;28.30;84.20
69901;DHT22;57183;50.930;5.406;2022-08-02T12:28:37;28.00;84.50
69901;DHT22;57183;50.930;5.406;2022-08-02T12:31:06;28.00;83.70
69901;DHT22;57183;50.930;5.406;2022-08-02T12:33:51;27.90;82.50
69901;DHT22;57183;50.930;5.406;2022-08-02T12:36:18;27.80;83.80
69901;DHT22;57183;50.930;5.406;2022-08-02T12:38:59;27.90;84.00
69901;DHT22;57183;50.930;5.406;2022-08-02T12:41:26;28.00;82.10
69901;DHT22;57183;50.930;5.406;2022-08-02T12:43:53;28.20;83.80
69901;DHT22;57183;50.930;5.406;2022-08-02T12:46:21;28.40;82.70
69901;DHT22;57183;50.930;5.406;2022-08-02T12:48:48;28.50;80.40
69901;DHT22;57183;50.930;5.406;2022-08-02T12:51:35;28.70;81.50
69901;DHT22;57183;50.930;5.406;2022-08-02T12:54:16;28.70;79.50
69901;DHT22;57183;50.930;5.406;2022-08-02T12:56:43;28.80;79.90
69901;DHT22;57183;50.930;5.406;2022-08-02T12:59:09;28.90;77.90
69901;DHT22;57183;50.930;5.406;2022-08-02T13:01:35;28.90;77.20
69901;DHT22;57183;50.930;5.406;2022-08-02T13:04:02;29.10;78.80
69901;DHT22;57183;50.930;5.406;2022-08-02T13:06:28;29.10;77.20
69901;DHT22;57183;50.930;5.406;2022-08-02T13:08:54;28.80;77.30
69901;DHT22;57183;50.930;5.406;2022-08-02T13:11:20;28.50;77.20
69901;DHT22;57183;50.930;5.406;2022-08-02T13:13:46;28.70;78.50
69901;DHT22;57183;50.930;5.406;2022-08-02T13:16:13;28.90;75.10
69901;DHT22;57183;50.930;5.406;2022-08-02T13:18:39;28.80;75.30
69901;DHT22;57183;50.930;5.406;2022-08-02T13:21:05;28.80;76.10
69901;DHT22;57183;50.930;5.406;2022-08-02T13:23:32;28.80;76.20
69901;DHT22;57183;50.930;5.406;2022-08-02T13:25:58;28.70;76.30
69901;DHT22;57183;50.930;5.406;2022-08-02T13:28:24;28.60;77.70
69901;DHT22;57183;50.930;5.406;2022-08-02T13:30:49;28.80;77.90
69901;DHT22;57183;50.930;5.406;2022-08-02T13:33:16;28.90;77.20
69901;DHT22;57183;50.930;5.406;2022-08-02T13:35:42;28.80;76.90
69901;DHT22;57183;50.930;5.406;2022-08-02T13:38:08;29.00;77.00
69901;DHT22;57183;50.930;5.406;2022-08-02T13:40:34;29.10;77.50
69901;DHT22;57183;50.930;5.406;2022-08-02T13:43:19;28.90;76.90
69901;DHT22;57183;50.930;5.406;2022-08-02T13:45:45;28.90;78.10
69901;DHT22;57183;50.930;5.406;2022-08-02T13:48:10;29.20;79.20
69901;DHT22;57183;50.930;5.406;2022-08-02T13:50:36;29.30;76.10
69901;DHT22;57183;50.930;5.406;2022-08-02T13:53:02;29.30;77.00
69901;DHT22;57183;50.930;5.406;2022-08-02T13:55:28;29.10;77.30
69901;DHT22;57183;50.930;5.406;2022-08-02T13:57:54;28.90;77.20
69901;DHT22;57183;50.930;5.406;2022-08-02T14:00:20;29.00;77.70
69901;DHT22;57183;50.930;5.406;2022-08-02T14:02:46;29.40;78.10
69901;DHT22;57183;50.930;5.406;2022-08-02T14:05:11;29.60;75.80
69901;DHT22;57183;50.930;5.406;2022-08-02T14:07:37;29.70;74.30
69901;DHT22;57183;50.930;5.406;2022-08-02T14:10:03;30.50;75.30
69901;DHT22;57183;50.930;5.406;2022-08-02T14:12:29;31.30;72.10
69901;DHT22;57183;50.930;5.406;2022-08-02T14:14:55;31.60;71.00
69901;DHT22;57183;50.930;5.406;2022-08-02T14:17:20;32.20;69.70
69901;DHT22;57183;50.930;5.406;2022-08-02T14:19:46;31.60;70.10
69901;DHT22;57183;50.930;5.406;2022-08-02T14:22:11;31.40;70.80
69901;DHT22;57183;50.930;5.406;2022-08-02T14:24:38;31.50;70.30
69901;DHT22;57183;50.930;5.406;2022-08-02T14:27:03;32.50;68.40
69901;DHT22;57183;50.930;5.406;2022-08-02T14:29:29;33.30;67.20
69901;DHT22;57183;50.930;5.406;2022-08-02T14:31:55;33.40;65.30
69901;DHT22;57183;50.930;5.406;2022-08-02T14:34:20;32.80;67.30
69901;DHT22;57183;50.930;5.406;2022-08-02T14:36:46;33.00;66.70
69901;DHT22;57183;50.930;5.406;2022-08-02T14:39:12;33.80;64.90
69901;DHT22;57183;50.930;5.406;2022-08-02T14:41:37;33.90;63.80
69901;DHT22;57183;50.930;5.406;2022-08-02T14:44:03;34.40;63.60
69901;DHT22;57183;50.930;5.406;2022-08-02T14:46:36;34.00;63.40
69901;DHT22;57183;50.930;5.406;2022-08-02T14:49:03;33.80;64.50
69901;DHT22;57183;50.930;5.406;2022-08-02T14:51:33;34.00;63.40
69901;DHT22;57183;50.930;5.406;2022-08-02T14:53:59;33.50;64.20
69901;DHT22;57183;50.930;5.406;2022-08-02T14:56:25;33.50;64.30
69901;DHT22;57183;50.930;5.406;2022-08-02T14:58:52;33.70;64.90
69901;DHT22;57183;50.930;5.406;2022-08-02T15:01:18;33.80;62.30
69901;DHT22;57183;50.930;5.406;2022-08-02T15:03:44;33.90;63.00
69901;DHT22;57183;50.930;5.406;2022-08-02T15:06:09;34.60;62.20
69901;DHT22;57183;50.930;5.406;2022-08-02T15:08:35;34.70;60.40
69901;DHT22;57183;50.930;5.406;2022-08-02T15:11:00;34.40;60.40
69901;DHT22;57183;50.930;5.406;2022-08-02T15:13:26;34.60;60.70
69901;DHT22;57183;50.930;5.406;2022-08-02T15:15:52;35.10;59.30
69901;DHT22;57183;50.930;5.406;2022-08-02T15:18:17;34.90;60.10
69901;DHT22;57183;50.930;5.406;2022-08-02T15:20:43;35.00;59.70
69901;DHT22;57183;50.930;5.406;2022-08-02T15:23:12;34.70;60.20
69901;DHT22;57183;50.930;5.406;2022-08-02T15:25:38;34.60;60.60
69901;DHT22;57183;50.930;5.406;2022-08-02T15:28:04;34.50;60.00
69901;DHT22;57183;50.930;5.406;2022-08-02T15:30:35;34.30;61.00
69901;DHT22;57183;50.930;5.406;2022-08-02T15:33:02;34.20;60.00
69901;DHT22;57183;50.930;5.406;2022-08-02T15:35:27;34.30;60.50
69901;DHT22;57183;50.930;5.406;2022-08-02T15:37:53;34.40;59.80
69901;DHT22;57183;50.930;5.406;2022-08-02T15:40:19;34.30;60.40
69901;DHT22;57183;50.930;5.406;2022-08-02T15:42:45;34.50;60.10
69901;DHT22;57183;50.930;5.406;2022-08-02T15:45:11;34.10;59.90
69901;DHT22;57183;50.930;5.406;2022-08-02T15:47:37;34.00;60.70
69901;DHT22;57183;50.930;5.406;2022-08-02T15:50:04;34.30;60.30
69901;DHT22;57183;50.930;5.406;2022-08-02T15:52:29;35.00;58.90
69901;DHT22;57183;50.930;5.406;2022-08-02T15:54:55;35.50;57.50
69901;DHT22;57183;50.930;5.406;2022-08-02T15:57:21;35.60;58.10
69901;DHT22;57183;50.930;5.406;2022-08-02T15:59:47;35.50;57.60
69901;DHT22;57183;50.930;5.406;2022-08-02T16:02:13;35.60;57.00
69901;DHT22;57183;50.930;5.406;2022-08-02T16:04:40;34.70;58.20
69901;DHT22;57183;50.930;5.406;2022-08-02T16:07:06;34.50;59.00
69901;DHT22;57183;50.930;5.406;2022-08-02T16:09:32;34.60;58.80
69901;DHT22;57183;50.930;5.406;2022-08-02T16:11:57;35.50;58.70
69901;DHT22;57183;50.930;5.406;2022-08-02T16:14:23;36.50;57.20
69901;DHT22;57183;50.930;5.406;2022-08-02T16:16:49;36.40;56.00
69901;DHT22;57183;50.930;5.406;2022-08-02T16:19:14;36.30;56.40
69901;DHT22;57183;50.930;5.406;2022-08-02T16:21:40;36.30;56.30
69901;DHT22;57183;50.930;5.406;2022-08-02T16:24:06;36.10;56.20
69901;DHT22;57183;50.930;5.406;2022-08-02T16:26:32;36.30;57.30